Time;durP1;ratioP1;P1;durP2;ratioP2;P2;SDS_P1;SDS_P2;PMS_P1;PMS_P2;Temp;Humidity;BMP_temperature;BMP_pressure;BME280_temperature;BME280_humidity;BME280_pressure;Samples;Min_cycle;Max_cycle;Signal;HPM_P1;HPM_P2
2022/03/04 00:01:31;;;;;;;5.65;1.90;;;;;;;0.10;88.44;100083.48;1779490;79;20935;-67
2022/03/04 00:03:58;;;;;;;8.97;2.13;;;;;;;0.10;87.77;100083.48;1784140;80;20962;-67
2022/03/04 00:06:25;;;;;;;5.40;2.10;;;;;;;0.10;88.19;100091.17;1776152;79;21721;-67
2022/03/04 00:08:52;;;;;;;4.20;2.03;;;;;;;0.10;87.87;100081.34;1778204;79;20959;-67
2022/03/04 00:11:19;;;;;;;6.60;1.95;;;;;;;0.10;88.02;100086.05;1774252;79;21644;-67
2022/03/04 00:13:46;;;;;;;7.00;2.00;;;;;;;0.09;88.14;100089.48;1773453;80;20919;-68
2022/03/04 00:16:15;;;;;;;7.65;2.22;;;;;;;0.09;88.08;100081.77;1770619;79;21538;-67
2022/03/04 00:18:41;;;;;;;9.30;2.70;;;;;;;0.10;87.85;100091.61;1769001;79;20935;-67
2022/03/04 00:21:09;;;;;;;6.72;1.95;;;;;;;0.06;88.29;100084.34;1773952;79;20932;-67
2022/03/04 00:23:36;;;;;;;5.47;1.80;;;;;;;0.05;87.84;100091.59;1771059;79;21057;-67
2022/03/04 00:26:10;;;;;;;11.63;2.65;;;;;;;0.06;87.76;100089.48;1772314;79;20970;-67
2022/03/04 00:28:36;;;;;;;6.95;2.22;;;;;;;0.05;87.87;100085.61;1771471;80;20871;-67
2022/03/04 00:31:03;;;;;;;8.03;2.40;;;;;;;0.03;88.79;100076.64;1770110;80;21611;-67
2022/03/04 00:33:32;;;;;;;5.60;1.47;;;;;;;0.00;88.12;100085.63;1778641;79;20871;-67
2022/03/04 00:35:58;;;;;;;7.87;2.25;;;;;;;-0.01;88.23;100085.17;1774047;80;21122;-67
2022/03/04 00:38:25;;;;;;;3.83;1.77;;;;;;;-0.03;88.24;100089.44;1768691;79;21440;-67
2022/03/04 00:40:51;;;;;;;12.67;2.90;;;;;;;-0.05;88.27;100093.73;1775909;80;20917;-67
2022/03/04 00:43:18;;;;;;;6.92;1.90;;;;;;;-0.07;88.06;100087.73;1770889;80;21198;-67
2022/03/04 00:45:45;;;;;;;6.83;1.90;;;;;;;-0.04;88.07;100087.73;1774106;80;20904;-67
2022/03/04 00:48:12;;;;;;;7.53;1.80;;;;;;;-0.06;88.73;100090.72;1739526;80;21142;-67
2022/03/04 00:50:39;;;;;;;7.53;1.75;;;;;;;-0.08;88.93;100087.32;1769021;79;21487;-67
2022/03/04 00:53:06;;;;;;;9.28;2.50;;;;;;;-0.11;89.06;100083.44;1770077;79;20919;-67
2022/03/04 00:55:38;;;;;;;6.60;1.50;;;;;;;-0.12;88.61;100088.15;1775185;79;20962;-67
2022/03/04 00:58:08;;;;;;;6.55;1.65;;;;;;;-0.13;89.04;100098.00;1772858;80;20990;-67
2022/03/04 01:00:36;;;;;;;8.28;2.12;;;;;;;-0.14;89.02;100091.13;1768284;79;21025;-67
2022/03/04 01:03:03;;;;;;;8.15;2.02;;;;;;;-0.13;88.88;100098.84;1773953;79;20946;-67
2022/03/04 01:05:30;;;;;;;7.78;2.30;;;;;;;-0.12;88.71;100094.56;1770318;79;21643;-67
2022/03/04 01:07:57;;;;;;;6.60;1.93;;;;;;;-0.14;88.95;100094.98;1770881;80;20975;-67
2022/03/04 01:10:23;;;;;;;5.90;1.80;;;;;;;-0.17;88.84;100093.69;1776145;79;20934;-67
2022/03/04 01:12:50;;;;;;;5.65;1.75;;;;;;;-0.16;88.65;100099.28;1769724;79;21960;-68
2022/03/04 01:15:17;;;;;;;6.37;1.65;;;;;;;-0.15;89.15;100097.13;1766840;80;20981;-68
2022/03/04 01:17:44;;;;;;;7.30;1.90;;;;;;;-0.16;88.90;100089.02;1771467;80;21479;-67
2022/03/04 01:20:11;;;;;;;4.10;1.20;;;;;;;-0.15;88.63;100097.13;1777239;80;21840;-67
2022/03/04 01:22:37;;;;;;;8.47;1.53;;;;;;;-0.14;88.72;100097.55;1772805;79;20938;-67
2022/03/04 01:25:05;;;;;;;9.68;1.52;;;;;;;-0.12;88.62;100089.43;1765532;79;21097;-67
2022/03/04 01:27:32;;;;;;;8.13;1.70;;;;;;;-0.10;89.28;100091.58;1774819;79;20907;-67
2022/03/04 01:29:58;;;;;;;3.37;1.17;;;;;;;-0.10;89.18;100098.00;1775099;80;20946;-68
2022/03/04 01:32:25;;;;;;;7.30;1.45;;;;;;;-0.06;89.02;100097.14;1774914;80;20972;-67
2022/03/04 01:34:52;;;;;;;8.25;1.82;;;;;;;-0.05;88.91;100096.30;1768580;79;20959;-67
2022/03/04 01:37:18;;;;;;;5.70;1.20;;;;;;;-0.06;88.75;100104.84;1736932;79;21428;-67
2022/03/04 01:39:45;;;;;;;5.60;1.22;;;;;;;-0.04;88.85;100106.56;1771603;79;20951;-70
2022/03/04 01:42:12;;;;;;;6.27;1.30;;;;;;;-0.02;88.97;100101.44;1769345;79;21509;-67
2022/03/04 01:44:40;;;;;;;5.95;1.62;;;;;;;-0.02;89.02;100104.86;1773365;79;20887;-67
2022/03/04 01:47:06;;;;;;;;;;;;;;;-0.03;88.84;100100.59;1772006;79;20913;-67
2022/03/04 01:49:34;;;;;;;4.90;1.20;;;;;;;-0.02;88.92;100104.01;1770918;80;22055;-67
2022/03/04 01:52:01;;;;;;;7.47;1.47;;;;;;;-0.02;88.98;100104.01;1768443;79;20911;-67
2022/03/04 01:54:27;;;;;;;2.70;1.20;;;;;;;-0.03;88.86;100095.86;1772959;79;20879;-67
2022/03/04 01:56:54;;;;;;;5.12;1.15;;;;;;;-0.03;88.74;100102.28;1775376;79;21463;-67
2022/03/04 01:59:21;;;;;;;9.70;1.55;;;;;;;-0.02;88.66;100104.01;1770848;79;20960;-67
2022/03/04 02:01:48;;;;;;;6.87;1.53;;;;;;;0.01;88.84;100098.03;1771176;80;21055;-67
2022/03/04 02:04:14;;;;;;;3.65;0.85;;;;;;;0.01;88.78;100098.88;1768906;80;21265;-67
2022/03/04 02:06:41;;;;;;;6.08;1.45;;;;;;;0.01;88.95;100096.31;1772128;80;21432;-67
2022/03/04 02:09:07;;;;;;;5.25;1.35;;;;;;;0.00;88.91;100102.31;1771575;79;20905;-67
2022/03/04 02:11:34;;;;;;;5.00;1.50;;;;;;;-0.01;88.81;100103.14;1772099;79;20956;-67
2022/03/04 02:14:01;;;;;;;5.12;1.25;;;;;;;-0.02;88.91;100102.30;1770027;79;21765;-67
2022/03/04 02:16:35;;;;;;;5.80;1.57;;;;;;;-0.03;88.89;100094.58;1770019;80;20901;-67
2022/03/04 02:19:02;;;;;;;5.67;1.55;;;;;;;-0.03;88.79;100092.01;1745012;80;20893;-67
2022/03/04 02:21:32;;;;;;;7.35;1.30;;;;;;;-0.03;88.82;100094.58;1771915;79;20916;-67
2022/03/04 02:23:59;;;;;;;8.63;1.72;;;;;;;-0.03;88.75;100093.29;1771814;79;20905;-67
2022/03/04 02:26:26;;;;;;;3.83;1.07;;;;;;;-0.03;88.81;100097.14;1772269;79;21075;-68
2022/03/04 02:28:53;;;;;;;4.83;1.40;;;;;;;-0.02;88.83;100096.31;1773134;80;21460;-67
2022/03/04 02:31:21;;;;;;;7.07;1.33;;;;;;;-0.01;88.75;100098.02;1768081;80;20884;-67
2022/03/04 02:33:49;;;;;;;8.83;1.52;;;;;;;0.00;88.75;100094.61;1737351;80;21179;-67
2022/03/04 02:36:16;;;;;;;3.45;1.15;;;;;;;-0.01;88.74;100103.14;1768386;79;21450;-67
2022/03/04 02:38:42;;;;;;;3.58;1.42;;;;;;;-0.01;88.99;100103.14;1770060;80;21042;-67
2022/03/04 02:41:09;;;;;;;4.67;1.30;;;;;;;-0.03;89.08;100104.84;1766217;80;21441;-67
2022/03/04 02:43:36;;;;;;;6.58;1.82;;;;;;;-0.03;88.99;100103.16;1768031;80;21495;-66
2022/03/04 02:46:02;;;;;;;3.57;1.50;;;;;;;-0.04;88.93;100105.70;1770185;80;20913;-67
2022/03/04 02:48:29;;;;;;;6.30;1.13;;;;;;;-0.04;89.02;100104.42;1772484;79;20923;-67
2022/03/04 02:50:55;;;;;;;7.97;1.15;;;;;;;-0.07;89.00;100110.84;1769941;80;21054;-67
2022/03/04 02:53:22;;;;;;;9.63;2.22;;;;;;;-0.07;89.11;100103.14;1773136;79;20915;-67
2022/03/04 02:55:49;;;;;;;5.17;1.82;;;;;;;-0.07;89.12;100103.14;1769927;79;21409;-67
2022/03/04 02:58:15;;;;;;;3.25;0.82;;;;;;;-0.07;89.16;100110.84;1762532;80;21002;-67
2022/03/04 03:00:43;;;;;;;5.95;1.87;;;;;;;-0.06;89.08;100109.97;1765178;79;20962;-67
2022/03/04 03:03:10;;;;;;;8.73;1.20;;;;;;;-0.06;89.21;100108.69;1767558;80;21495;-67
2022/03/04 03:05:37;;;;;;;7.22;1.60;;;;;;;-0.06;89.01;100111.26;1766344;80;20946;-67
2022/03/04 03:08:04;;;;;;;7.22;1.32;;;;;;;-0.06;89.16;100109.97;1768242;79;20960;-67
2022/03/04 03:10:32;;;;;;;6.78;1.50;;;;;;;-0.08;89.10;100109.14;1772879;80;20935;-67
2022/03/04 03:12:59;;;;;;;7.85;1.50;;;;;;;-0.08;89.05;100110.42;1765070;79;21078;-67
2022/03/04 03:15:26;;;;;;;6.13;1.30;;;;;;;-0.11;88.92;100109.98;1770951;79;21071;-67
2022/03/04 03:17:53;;;;;;;2.55;1.05;;;;;;;-0.09;89.46;100104.84;1765524;80;20998;-67
2022/03/04 03:20:20;;;;;;;5.35;1.30;;;;;;;-0.11;89.30;100119.38;1769343;79;20929;-67
2022/03/04 03:22:47;;;;;;;5.47;1.17;;;;;;;-0.11;89.26;100119.38;1768320;79;20970;-67
2022/03/04 03:25:14;;;;;;;7.03;1.22;;;;;;;-0.12;89.36;100123.66;1769918;80;20884;-67
2022/03/04 03:27:40;;;;;;;8.48;1.85;;;;;;;-0.12;89.29;100122.80;1771478;80;21062;-67
2022/03/04 03:30:09;;;;;;;8.50;1.47;;;;;;;-0.11;89.12;100127.95;1763872;80;20921;-67
2022/03/04 03:32:36;;;;;;;7.37;1.65;;;;;;;-0.09;89.22;100127.94;1773922;80;20897;-67
2022/03/04 03:35:03;;;;;;;8.18;1.60;;;;;;;-0.09;89.19;100131.36;1764510;79;21464;-67
2022/03/04 03:37:30;;;;;;;9.98;1.47;;;;;;;-0.08;89.10;100127.11;1772206;79;21348;-67
2022/03/04 03:39:56;;;;;;;7.23;1.30;;;;;;;-0.06;89.11;100127.94;1772129;80;21069;-67
2022/03/04 03:42:23;;;;;;;6.43;1.20;;;;;;;-0.08;89.33;100129.67;1770514;80;20895;-67
2022/03/04 03:44:50;;;;;;;5.83;1.55;;;;;;;-0.09;89.24;100124.09;1771259;79;21551;-67
2022/03/04 03:47:17;;;;;;;5.22;0.95;;;;;;;-0.10;89.12;100122.39;1764865;79;20877;-67
2022/03/04 03:49:43;;;;;;;2.55;0.90;;;;;;;-0.09;89.10;100129.22;1766718;80;20983;-67
2022/03/04 03:52:12;;;;;;;6.17;1.60;;;;;;;-0.10;89.04;100128.37;1771508;79;21821;-67
2022/03/04 03:54:38;;;;;;;7.47;1.45;;;;;;;-0.10;88.95;100130.09;1771165;80;20867;-67
2022/03/04 03:57:05;;;;;;;4.85;1.27;;;;;;;-0.07;88.93;100130.09;1768957;80;21445;-67
2022/03/04 03:59:32;;;;;;;5.97;1.40;;;;;;;-0.06;88.95;100136.92;1771690;80;20926;-67
2022/03/04 04:01:58;;;;;;;4.37;1.17;;;;;;;-0.05;88.91;100130.96;1768102;80;20898;-67
2022/03/04 04:04:26;;;;;;;7.53;1.42;;;;;;;-0.03;88.85;100130.52;1767129;80;21500;-67
2022/03/04 04:06:52;;;;;;;8.43;1.57;;;;;;;-0.03;88.78;100130.52;1765163;79;20919;-67
2022/03/04 04:09:19;;;;;;;7.58;1.57;;;;;;;-0.02;88.77;100127.97;1765730;80;20942;-67
2022/03/04 04:11:45;;;;;;;5.03;1.30;;;;;;;0.01;88.78;100129.69;1770633;79;20879;-67
2022/03/04 04:14:12;;;;;;;7.35;1.85;;;;;;;0.01;88.75;100137.39;1772004;80;21366;-67
2022/03/04 04:16:42;;;;;;;6.42;1.57;;;;;;;-0.01;88.70;100131.38;1774580;79;21108;-67
2022/03/04 04:19:09;;;;;;;11.75;2.40;;;;;;;-0.03;88.76;100136.53;1772159;80;21424;-66
2022/03/04 04:21:35;;;;;;;4.22;0.98;;;;;;;-0.03;88.74;100131.80;1773998;79;20947;-67
2022/03/04 04:24:03;;;;;;;3.73;1.10;;;;;;;-0.15;88.71;100116.38;1775255;79;20935;-67
2022/03/04 04:26:29;;;;;;;5.97;1.52;;;;;;;-0.15;88.71;100116.38;1768288;80;22028;-67
2022/03/04 04:28:56;;;;;;;6.33;1.77;;;;;;;-0.05;88.77;100134.81;1770262;79;21102;-66
2022/03/04 04:31:23;;;;;;;5.47;1.52;;;;;;;-0.06;88.85;100127.94;1774507;79;20891;-67
2022/03/04 04:33:51;;;;;;;7.25;1.70;;;;;;;-0.08;88.79;100124.54;1771477;80;21011;-70
2022/03/04 04:36:18;;;;;;;4.65;1.55;;;;;;;-0.09;88.76;100135.64;1772487;80;20900;-68
2022/03/04 04:38:45;;;;;;;6.50;1.90;;;;;;;-0.09;88.78;100121.52;1770947;80;20903;-67
2022/03/04 04:41:12;;;;;;;7.67;2.03;;;;;;;-0.09;88.75;100127.94;1769186;79;21083;-68
2022/03/04 04:43:39;;;;;;;5.08;1.40;;;;;;;-0.07;88.74;100123.67;1772138;79;21479;-67
2022/03/04 04:46:09;;;;;;;6.00;2.00;;;;;;;-0.07;88.73;100127.52;1770713;79;20994;-66
2022/03/04 04:48:35;;;;;;;6.83;1.65;;;;;;;-0.07;88.66;100123.67;1775322;80;20966;-66
2022/03/04 04:51:02;;;;;;;7.70;1.93;;;;;;;-0.06;88.65;100129.23;1767039;79;20984;-67
2022/03/04 04:53:29;;;;;;;6.87;1.75;;;;;;;-0.06;88.64;100126.66;1776584;79;21099;-66
2022/03/04 04:55:56;;;;;;;6.17;1.70;;;;;;;-0.08;88.62;100122.83;1779527;79;20926;-66
2022/03/04 04:58:23;;;;;;;7.07;2.03;;;;;;;-0.08;88.58;100129.67;1768403;80;20899;-66
2022/03/04 05:00:57;;;;;;;6.37;1.70;;;;;;;-0.09;88.63;100130.50;1763835;80;21195;-66
2022/03/04 05:03:23;;;;;;;4.55;1.82;;;;;;;-0.12;88.58;100134.35;1761267;80;21531;-67
2022/03/04 05:05:52;;;;;;;8.15;2.62;;;;;;;-0.15;88.54;100143.33;1776505;79;22058;-67
2022/03/04 05:08:19;;;;;;;5.03;2.27;;;;;;;-0.19;88.55;100142.91;1777719;80;20926;-68
2022/03/04 05:10:45;;;;;;;5.75;1.55;;;;;;;-0.25;89.02;100135.61;1775971;79;20889;-68
2022/03/04 05:13:12;;;;;;;4.45;1.40;;;;;;;-0.26;89.06;100142.86;1769063;80;20915;-68
2022/03/04 05:15:41;;;;;;;4.72;2.00;;;;;;;-0.29;89.32;100147.98;1767516;81;20971;-68
2022/03/04 05:18:08;;;;;;;5.25;1.82;;;;;;;-0.30;89.10;100147.56;1782923;80;21704;-67
2022/03/04 05:20:35;;;;;;;5.08;2.42;;;;;;;-0.30;89.22;100146.28;1782031;80;20921;-67
2022/03/04 05:23:02;;;;;;;6.05;2.00;;;;;;;-0.30;89.21;100144.99;1768710;80;20928;-67
2022/03/04 05:25:28;;;;;;;8.13;1.97;;;;;;;-0.29;89.35;100148.41;1770912;81;21579;-67
2022/03/04 05:27:55;;;;;;;6.22;1.75;;;;;;;-0.27;89.37;100153.98;1769466;80;21598;-67
2022/03/04 05:30:22;;;;;;;4.87;2.27;;;;;;;-0.29;89.18;100153.11;1771097;80;21047;-67
2022/03/04 05:32:48;;;;;;;6.90;2.17;;;;;;;-0.27;89.28;100159.12;1766152;81;20946;-67
2022/03/04 05:35:15;;;;;;;6.92;2.80;;;;;;;-0.27;89.22;100159.55;1769351;80;20891;-67
2022/03/04 05:37:42;;;;;;;7.60;2.85;;;;;;;-0.28;89.37;100161.27;1768789;80;20927;-67
2022/03/04 05:40:10;;;;;;;3.20;2.10;;;;;;;-0.31;89.34;100163.82;1769018;80;20892;-67
2022/03/04 05:42:37;;;;;;;6.55;3.10;;;;;;;-0.29;89.35;100168.94;1770597;81;21701;-67
2022/03/04 05:45:05;;;;;;;5.47;3.27;;;;;;;-0.30;89.35;100161.67;1764967;79;20930;-67
2022/03/04 05:47:31;;;;;;;;;;;;;;;-0.28;89.40;100158.70;1770975;81;21017;-67
2022/03/04 05:49:58;;;;;;;6.33;3.15;;;;;;;-0.25;89.47;100162.98;1765537;81;20144;-67
2022/03/04 05:52:25;;;;;;;9.10;3.62;;;;;;;-0.21;89.48;100168.98;1766186;80;20943;-67
2022/03/04 05:54:51;;;;;;;4.55;2.62;;;;;;;-0.13;89.62;100175.00;1771128;81;21442;-67
2022/03/04 05:57:18;;;;;;;4.85;1.80;;;;;;;-0.03;89.61;100169.02;1769555;80;20899;-67
2022/03/04 05:59:45;;;;;;;3.12;1.70;;;;;;;0.02;89.44;100177.59;1771321;81;21580;-68
2022/03/04 06:02:11;;;;;;;3.33;1.52;;;;;;;0.05;89.36;100180.17;1768569;81;20926;-67
2022/03/04 06:04:38;;;;;;;3.45;1.60;;;;;;;0.07;89.37;100177.19;1728438;81;21041;-67
2022/03/04 06:07:05;;;;;;;7.72;2.05;;;;;;;0.09;89.31;100179.34;1768288;81;21011;-68
2022/03/04 06:09:32;;;;;;;5.92;3.60;;;;;;;0.08;89.26;100184.03;1763764;80;20915;-67
2022/03/04 06:11:59;;;;;;;6.83;2.35;;;;;;;0.08;89.22;100174.19;1751052;80;20962;-68
2022/03/04 06:14:26;;;;;;;8.40;3.33;;;;;;;0.07;89.27;100193.88;1773594;80;21544;-68
2022/03/04 06:16:52;;;;;;;9.08;3.52;;;;;;;0.08;89.34;100194.30;1778410;80;21522;-68
2022/03/04 06:19:20;;;;;;;13.78;6.47;;;;;;;0.10;89.33;100195.60;1781282;79;21244;-68
2022/03/04 06:21:49;;;;;;;23.62;8.68;;;;;;;0.13;89.38;100196.45;1789068;79;21487;-68
2022/03/04 06:24:15;;;;;;;23.60;10.20;;;;;;;0.17;89.37;100193.06;1789912;78;20933;-67
2022/03/04 06:26:42;;;;;;;32.20;15.30;;;;;;;0.15;89.35;100197.77;1784965;78;20910;-68
2022/03/04 06:29:10;;;;;;;18.23;7.55;;;;;;;0.16;89.41;100201.60;1775276;79;21433;-68
2022/03/04 06:31:38;;;;;;;16.67;6.78;;;;;;;0.21;89.51;100211.46;1760008;80;21202;-68
2022/03/04 06:34:05;;;;;;;13.35;5.60;;;;;;;0.27;89.58;100205.92;1778179;79;20978;-68
2022/03/04 06:36:32;;;;;;;13.30;5.67;;;;;;;0.32;89.60;100209.36;1775717;80;20895;-68
2022/03/04 06:39:00;;;;;;;12.93;4.65;;;;;;;0.36;89.54;100216.20;1783784;79;21038;-68
2022/03/04 06:41:27;;;;;;;7.45;3.35;;;;;;;0.38;89.47;100214.50;1783932;80;21454;-68
2022/03/04 06:43:54;;;;;;;5.58;2.42;;;;;;;0.35;89.38;100217.07;1787358;80;21865;-68
2022/03/04 06:46:21;;;;;;;3.37;1.95;;;;;;;0.35;89.39;100211.93;1786736;80;20974;-68
2022/03/04 06:48:50;;;;;;;6.75;2.67;;;;;;;0.36;89.39;100219.63;1786080;80;21570;-68
2022/03/04 06:51:17;;;;;;;6.55;2.92;;;;;;;0.36;89.46;100222.19;1778716;78;20993;-68
2022/03/04 06:53:44;;;;;;;6.00;2.15;;;;;;;0.37;89.46;100220.51;1778611;79;22053;-67
2022/03/04 06:56:11;;;;;;;8.43;3.50;;;;;;;0.41;89.50;100227.35;1781076;79;21787;-71
2022/03/04 06:58:42;;;;;;;9.63;4.55;;;;;;;0.48;89.58;100226.52;1768192;79;20914;-65
2022/03/04 07:01:09;;;;;;;12.85;5.37;;;;;;;0.55;89.53;100229.52;1771760;80;20895;-69
2022/03/04 07:03:35;;;;;;;19.35;9.65;;;;;;;0.60;89.50;100234.23;1765077;80;20934;-66
2022/03/04 07:06:05;;;;;;;13.48;6.87;;;;;;;0.64;89.40;100235.98;1772170;80;20954;-67
2022/03/04 07:08:36;;;;;;;13.48;5.70;;;;;;;0.65;89.36;100241.53;1777227;79;21279;-67
2022/03/04 07:11:02;;;;;;;13.95;4.97;;;;;;;0.69;89.45;100237.68;1764179;80;20959;-67
2022/03/04 07:13:28;;;;;;;;;;;;;;;0.72;89.37;100240.25;1764005;80;20957;-66
2022/03/04 07:15:56;;;;;;;15.58;5.25;;;;;;;0.73;89.35;100245.81;1752489;80;20112;-65
2022/03/04 07:18:23;;;;;;;11.68;3.77;;;;;;;0.72;89.33;100248.81;1767740;80;20965;-66
2022/03/04 07:20:50;;;;;;;9.70;3.37;;;;;;;0.70;89.41;100256.09;1775690;80;21014;-66
2022/03/04 07:23:17;;;;;;;11.08;3.30;;;;;;;0.71;89.43;100253.97;1767640;79;20887;-66
2022/03/04 07:25:44;;;;;;;8.30;2.65;;;;;;;0.68;89.54;100248.83;1771952;79;20946;-66
2022/03/04 07:28:11;;;;;;;8.90;3.05;;;;;;;0.64;89.72;100257.82;1768797;79;20899;-67
2022/03/04 07:30:37;;;;;;;9.40;2.60;;;;;;;0.64;89.72;100257.82;1775522;80;20927;-66
2022/03/04 07:33:04;;;;;;;7.20;2.40;;;;;;;0.66;89.67;100259.94;1769147;79;21957;-66
2022/03/04 07:35:31;;;;;;;6.67;2.60;;;;;;;0.66;89.71;100266.37;1770954;80;20966;-66
2022/03/04 07:38:00;;;;;;;6.60;2.30;;;;;;;0.68;89.68;100264.25;1775522;80;20953;-65
2022/03/04 07:40:27;;;;;;;8.70;2.42;;;;;;;0.72;89.72;100265.95;1774593;80;20912;-67
2022/03/04 07:42:53;;;;;;;7.05;2.08;;;;;;;0.79;89.77;100277.97;1772770;80;20978;-66
2022/03/04 07:45:20;;;;;;;7.17;2.80;;;;;;;0.91;89.90;100261.27;1762142;80;21833;-67
2022/03/04 07:47:47;;;;;;;8.37;2.47;;;;;;;0.94;89.62;100271.55;1776444;80;21583;-67
2022/03/04 07:50:19;;;;;;;9.33;2.47;;;;;;;1.01;89.62;100277.14;1772558;80;20962;-67
2022/03/04 07:52:46;;;;;;;7.40;2.80;;;;;;;1.04;89.49;100273.71;1765146;79;21464;-67
2022/03/04 07:55:15;;;;;;;5.53;2.10;;;;;;;1.08;89.51;100283.98;1766553;80;20947;-67
2022/03/04 07:57:43;;;;;;;5.33;2.55;;;;;;;1.14;89.52;100279.70;1769437;80;21109;-67
2022/03/04 08:00:14;;;;;;;4.95;1.85;;;;;;;1.16;89.34;100283.98;1760136;79;20918;-66
2022/03/04 08:02:42;;;;;;;5.67;2.40;;;;;;;1.23;89.35;100292.55;1764766;79;21041;-67
2022/03/04 08:05:10;;;;;;;3.52;1.65;;;;;;;1.33;89.47;100292.98;1770976;79;20907;-68
2022/03/04 08:07:37;;;;;;;3.47;1.20;;;;;;;1.37;89.21;100289.54;1768734;80;20935;-67
2022/03/04 08:10:07;;;;;;;4.47;1.80;;;;;;;1.40;88.86;100285.70;1747478;79;21064;-66
2022/03/04 08:12:34;;;;;;;3.00;1.37;;;;;;;1.46;88.70;100292.13;1772104;80;21607;-66
2022/03/04 08:15:01;;;;;;;3.90;1.65;;;;;;;1.55;88.84;100285.67;1752320;80;20934;-67
2022/03/04 08:17:27;;;;;;;3.80;1.43;;;;;;;1.61;88.54;100289.10;1771700;79;21547;-66
2022/03/04 08:19:55;;;;;;;4.30;1.53;;;;;;;1.65;88.78;100285.64;1772858;80;20942;-67
2022/03/04 08:22:22;;;;;;;4.72;1.77;;;;;;;1.78;88.94;100294.63;1766340;79;27393;-66
2022/03/04 08:24:49;;;;;;;5.55;1.40;;;;;;;1.80;88.78;100294.64;1775471;80;25768;-65
2022/03/04 08:27:15;;;;;;;4.85;1.45;;;;;;;1.78;88.76;100292.49;1778432;80;20887;-65
2022/03/04 08:29:42;;;;;;;3.75;1.32;;;;;;;1.75;88.62;100298.94;1763341;79;20926;-66
2022/03/04 08:32:09;;;;;;;3.12;1.37;;;;;;;1.70;88.54;100298.08;1769712;79;21482;-65
2022/03/04 08:34:36;;;;;;;3.93;1.87;;;;;;;1.64;88.19;100307.11;1763580;80;21043;-66
2022/03/04 08:37:03;;;;;;;6.20;2.50;;;;;;;1.52;88.08;100293.40;1760223;79;20977;-65
2022/03/04 08:39:30;;;;;;;4.90;2.42;;;;;;;1.52;88.29;100308.84;1772677;80;21022;-66
2022/03/04 08:41:57;;;;;;;5.80;2.70;;;;;;;1.52;88.22;100312.70;1765392;79;20942;-66
2022/03/04 08:44:23;;;;;;;4.70;1.80;;;;;;;1.59;88.40;100314.83;1775347;80;21945;-66
2022/03/04 08:46:50;;;;;;;6.30;1.73;;;;;;;1.59;87.96;100319.98;1778427;79;20990;-65
2022/03/04 08:49:19;;;;;;;5.58;1.65;;;;;;;1.63;88.41;100315.70;1774938;80;21269;-66
2022/03/04 08:51:46;;;;;;;2.85;1.27;;;;;;;1.67;88.16;100325.13;1767689;79;21449;-66
2022/03/04 08:54:12;;;;;;;5.85;2.02;;;;;;;1.69;88.26;100335.00;1763601;80;20954;-66
2022/03/04 08:56:39;;;;;;;3.92;1.37;;;;;;;1.66;88.12;100336.29;1778525;80;20977;-66
2022/03/04 08:59:06;;;;;;;3.85;1.45;;;;;;;1.63;87.94;100346.59;1763839;80;21090;-66
2022/03/04 09:01:33;;;;;;;1.97;1.40;;;;;;;1.58;87.78;100338.02;1768772;80;20911;-65
2022/03/04 09:03:59;;;;;;;5.12;1.25;;;;;;;1.56;87.75;100333.70;1776031;79;20954;-69
2022/03/04 09:06:26;;;;;;;3.25;1.25;;;;;;;1.55;87.74;100342.73;1765690;79;20917;-70
2022/03/04 09:08:53;;;;;;;1.60;1.00;;;;;;;1.53;87.88;100348.30;1764555;80;21564;-71
2022/03/04 09:11:20;;;;;;;5.85;1.17;;;;;;;1.63;88.15;100349.17;1770457;79;21855;-70
2022/03/04 09:13:47;;;;;;;2.00;1.02;;;;;;;1.77;88.16;100353.44;1773767;79;20933;-70
2022/03/04 09:16:15;;;;;;;2.55;0.93;;;;;;;1.91;88.16;100348.27;1777994;80;21495;-69
2022/03/04 09:18:41;;;;;;;;;;;;;;;2.03;87.97;100360.69;1777411;79;20982;-67
2022/03/04 09:21:08;;;;;;;5.30;1.67;;;;;;;2.04;87.71;100358.53;1755742;80;20437;-68
2022/03/04 09:23:36;;;;;;;3.17;1.25;;;;;;;2.13;88.09;100355.92;1744806;81;20926;-67
2022/03/04 09:26:03;;;;;;;3.70;1.40;;;;;;;2.14;87.85;100364.09;1771885;79;21518;-67
2022/03/04 09:28:31;;;;;;;4.83;1.33;;;;;;;2.15;87.53;100361.94;1765837;79;20921;-65
2022/03/04 09:30:58;;;;;;;3.62;1.15;;;;;;;2.14;87.21;100358.95;1758663;79;20953;-65
2022/03/04 09:33:25;;;;;;;4.28;1.37;;;;;;;2.18;86.86;100363.21;1744415;80;21096;-65
2022/03/04 09:35:54;;;;;;;6.37;2.20;;;;;;;2.13;86.71;100361.08;1777852;80;21045;-65
2022/03/04 09:38:21;;;;;;;7.80;1.42;;;;;;;2.17;86.98;100367.95;1777684;79;20930;-65
2022/03/04 09:40:49;;;;;;;2.00;0.90;;;;;;;2.18;87.37;100382.53;1757581;79;20927;-66
2022/03/04 09:43:19;;;;;;;2.60;0.78;;;;;;;2.16;87.41;100366.25;1773715;80;21017;-66
2022/03/04 09:45:47;;;;;;;3.15;0.95;;;;;;;2.05;86.97;100379.58;1768876;80;20954;-68
2022/03/04 09:48:16;;;;;;;3.30;0.88;;;;;;;2.00;87.34;100371.42;1745522;80;21729;-65
2022/03/04 09:50:48;;;;;;;2.95;1.45;;;;;;;2.00;87.42;100373.99;1771832;80;20946;-66
2022/03/04 09:53:16;;;;;;;4.28;1.10;;;;;;;1.98;87.31;100386.01;1771184;79;20868;-65
2022/03/04 09:55:46;;;;;;;3.50;1.27;;;;;;;1.90;87.34;100377.44;1747297;80;20919;-66
2022/03/04 09:58:15;;;;;;;4.72;1.50;;;;;;;1.83;87.03;100389.91;1779874;79;20978;-66
2022/03/04 10:00:44;;;;;;;2.80;1.27;;;;;;;1.75;87.35;100390.34;1769569;79;20926;-66
2022/03/04 10:03:34;;;;;;;4.33;1.17;;;;;;;1.80;87.71;100388.63;1776119;80;20905;-66
2022/03/04 10:06:04;;;;;;;2.20;1.05;;;;;;;1.89;87.86;100391.18;1772456;79;20903;-66
2022/03/04 10:08:41;;;;;;;2.50;1.05;;;;;;;1.89;87.24;100389.89;1777811;80;20919;-65
2022/03/04 10:11:09;;;;;;;3.27;1.10;;;;;;;1.89;87.43;100388.61;1748523;80;20965;-65
2022/03/04 10:13:49;;;;;;;3.08;1.22;;;;;;;1.93;87.49;100394.59;1767960;79;21074;-66
2022/03/04 10:16:29;;;;;;;3.42;1.20;;;;;;;1.90;87.32;100390.31;1777748;80;21464;-66
2022/03/04 10:19:14;;;;;;;2.77;0.90;;;;;;;1.87;87.17;100394.18;1764260;80;20891;-65
2022/03/04 10:22:00;;;;;;;2.12;0.85;;;;;;;1.76;87.00;100389.47;1776322;80;20958;-66
2022/03/04 10:24:35;;;;;;;2.25;1.00;;;;;;;1.61;86.56;100397.21;1775003;80;24945;-65
2022/03/04 10:27:12;;;;;;;1.87;0.90;;;;;;;1.51;86.97;100392.07;1781051;80;21825;-65
2022/03/04 10:29:44;;;;;;;;;;;;;;;1.53;87.25;100395.48;1792264;78;21456;-66
2022/03/04 10:32:26;;;;;;;3.05;1.22;;;;;;;1.49;87.14;100393.78;1780494;80;20123;-66
2022/03/04 10:35:08;;;;;;;3.08;1.20;;;;;;;1.49;87.34;100393.78;1779475;80;20930;-66
2022/03/04 10:37:51;;;;;;;4.15;1.25;;;;;;;1.54;87.41;100397.22;1757637;80;20915;-66
2022/03/04 10:40:20;;;;;;;2.80;1.15;;;;;;;1.58;87.16;100386.92;1781189;79;22362;-66
2022/03/04 10:42:53;;;;;;;3.42;1.62;;;;;;;1.54;87.07;100393.36;1768554;80;20895;-66
2022/03/04 10:45:29;;;;;;;2.20;1.05;;;;;;;1.50;86.56;100398.05;1784841;79;21451;-65
2022/03/04 10:48:07;;;;;;;4.80;1.02;;;;;;;1.44;86.73;100390.34;1779160;80;20899;-66
2022/03/04 10:50:52;;;;;;;;;;;;;;;1.52;87.14;100396.34;1749373;80;20947;-65
2022/03/04 10:53:23;;;;;;;2.40;1.00;;;;;;;1.65;87.15;100406.63;1776888;79;21109;-66
2022/03/04 10:56:02;;;;;;;2.33;1.17;;;;;;;1.70;87.03;100397.20;1786352;79;20899;-66
2022/03/04 10:58:39;;;;;;;2.90;1.00;;;;;;;1.80;86.70;100396.34;1781463;80;20897;-65
2022/03/04 11:01:11;;;;;;;4.72;1.15;;;;;;;1.93;86.29;100392.91;1781633;80;21014;-66
2022/03/04 11:03:41;;;;;;;3.12;1.42;;;;;;;2.17;86.81;100388.56;1794877;79;20958;-66
2022/03/04 11:06:13;;;;;;;2.52;1.20;;;;;;;2.36;86.73;100385.51;1791685;78;21003;-66
2022/03/04 11:08:45;;;;;;;3.22;1.00;;;;;;;2.58;86.39;100392.74;1797079;78;20929;-66
2022/03/04 11:11:10;;;;;;;3.87;1.62;;;;;;;2.45;85.38;100384.18;1787785;78;21443;-66
2022/03/04 11:13:41;;;;;;;2.65;1.15;;;;;;;2.51;86.33;100385.87;1787193;80;20927;-66
2022/03/04 11:16:09;;;;;;;1.98;0.90;;;;;;;2.59;86.07;100386.71;1791246;78;20993;-66
2022/03/04 11:18:37;;;;;;;2.50;1.40;;;;;;;2.71;86.31;100391.80;1796021;79;21122;-65
2022/03/04 11:21:08;;;;;;;;;;;;;;;2.80;86.21;100389.20;1796333;78;20992;-66
2022/03/04 11:23:36;;;;;;;2.08;0.90;;;;;;;2.78;85.61;100388.34;1765141;80;20122;-66
2022/03/04 11:26:07;;;;;;;2.05;0.70;;;;;;;2.53;84.46;100394.47;1769163;80;21561;-65
2022/03/04 11:28:49;;;;;;;2.70;1.02;;;;;;;2.39;84.56;100388.92;1753042;80;20889;-66
2022/03/04 11:31:27;;;;;;;1.80;1.07;;;;;;;2.32;84.93;100391.08;1767958;80;21446;-66
2022/03/04 11:34:02;;;;;;;4.28;1.50;;;;;;;2.35;84.98;100391.09;1764188;80;21105;-66
2022/03/04 11:36:34;;;;;;;1.80;0.98;;;;;;;2.40;85.17;100381.61;1762724;80;20950;-66